sensor_id;sensor_type;location;lat;lon;timestamp;pressure;altitude;pressure_sealevel;temperature;humidity
17060;BME280;8646;49.716;9.266;2022-12-18T00:00:28;101737.84;;;-6.75;86.94
17060;BME280;8646;49.716;9.266;2022-12-18T00:03:32;101733.22;;;-6.79;87.46
17060;BME280;8646;49.716;9.266;2022-12-18T00:06:35;101735.19;;;-6.75;87.17
17060;BME280;8646;49.716;9.266;2022-12-18T00:09:38;101730.31;;;-6.67;87.02
17060;BME280;8646;49.716;9.266;2022-12-18T00:12:42;101730.59;;;-6.79;87.52
17060;BME280;8646;49.716;9.266;2022-12-18T00:15:48;101741.88;;;-6.64;87.35
17060;BME280;8646;49.716;9.266;2022-12-18T00:18:53;101750.38;;;-6.69;87.31
17060;BME280;8646;49.716;9.266;2022-12-18T00:21:56;101752.28;;;-6.67;87.55
17060;BME280;8646;49.716;9.266;2022-12-18T00:24:59;101755.28;;;-6.77;87.85
17060;BME280;8646;49.716;9.266;2022-12-18T00:28:03;101754.53;;;-6.74;87.44
17060;BME280;8646;49.716;9.266;2022-12-18T00:31:08;101758.81;;;-6.76;87.35
17060;BME280;8646;49.716;9.266;2022-12-18T00:34:11;101749.28;;;-6.74;87.54
17060;BME280;8646;49.716;9.266;2022-12-18T00:37:14;101752.41;;;-6.64;87.12
17060;BME280;8646;49.716;9.266;2022-12-18T00:40:21;101762.19;;;-6.79;87.58
17060;BME280;8646;49.716;9.266;2022-12-18T00:43:32;101762.81;;;-6.67;87.12
17060;BME280;8646;49.716;9.266;2022-12-18T00:46:34;101755.81;;;-6.66;86.68
17060;BME280;8646;49.716;9.266;2022-12-18T00:49:37;101752.28;;;-6.67;86.52
17060;BME280;8646;49.716;9.266;2022-12-18T00:52:40;101767.97;;;-6.86;87.23
17060;BME280;8646;49.716;9.266;2022-12-18T00:55:43;101766.56;;;-6.97;87.71
17060;BME280;8646;49.716;9.266;2022-12-18T00:58:50;101775.13;;;-7.01;87.92
17060;BME280;8646;49.716;9.266;2022-12-18T01:01:56;101782.84;;;-7.04;88.00
17060;BME280;8646;49.716;9.266;2022-12-18T01:04:59;101765.88;;;-6.75;87.54
17060;BME280;8646;49.716;9.266;2022-12-18T01:08:02;101758.06;;;-6.74;86.75
17060;BME280;8646;49.716;9.266;2022-12-18T01:11:07;101744.91;;;-6.74;86.25
17060;BME280;8646;49.716;9.266;2022-12-18T01:14:14;101751.22;;;-6.70;86.30
17060;BME280;8646;49.716;9.266;2022-12-18T01:17:17;101747.63;;;-6.90;86.65
17060;BME280;8646;49.716;9.266;2022-12-18T01:20:20;101755.88;;;-7.00;87.06
17060;BME280;8646;49.716;9.266;2022-12-18T01:23:23;101761.13;;;-7.00;87.49
17060;BME280;8646;49.716;9.266;2022-12-18T01:26:26;101776.69;;;-6.87;86.76
17060;BME280;8646;49.716;9.266;2022-12-18T01:29:32;101778.25;;;-7.08;87.05
17060;BME280;8646;49.716;9.266;2022-12-18T01:32:38;101784.03;;;-7.15;87.39
17060;BME280;8646;49.716;9.266;2022-12-18T01:35:46;101787.19;;;-7.22;88.02
17060;BME280;8646;49.716;9.266;2022-12-18T01:38:51;101791.94;;;-7.15;87.81
17060;BME280;8646;49.716;9.266;2022-12-18T01:41:54;101794.28;;;-7.04;87.20
17060;BME280;8646;49.716;9.266;2022-12-18T01:45:31;101790.00;;;-7.02;86.72
17060;BME280;8646;49.716;9.266;2022-12-18T01:48:38;101784.50;;;-7.06;87.05
17060;BME280;8646;49.716;9.266;2022-12-18T01:51:41;101781.00;;;-7.23;87.20
17060;BME280;8646;49.716;9.266;2022-12-18T01:54:44;101775.97;;;-7.18;87.52
17060;BME280;8646;49.716;9.266;2022-12-18T01:57:48;101766.56;;;-6.97;86.94
17060;BME280;8646;49.716;9.266;2022-12-18T02:00:53;101779.59;;;-7.16;87.13
17060;BME280;8646;49.716;9.266;2022-12-18T02:04:18;101797.31;;;-7.30;87.53
17060;BME280;8646;49.716;9.266;2022-12-18T02:07:28;101794.41;;;-7.35;87.81
17060;BME280;8646;49.716;9.266;2022-12-18T02:10:43;101793.28;;;-7.40;88.05
17060;BME280;8646;49.716;9.266;2022-12-18T02:14:20;101794.28;;;-7.38;88.16
17060;BME280;8646;49.716;9.266;2022-12-18T02:17:33;101784.97;;;-7.31;87.82
17060;BME280;8646;49.716;9.266;2022-12-18T02:20:46;101786.06;;;-7.10;86.86
17060;BME280;8646;49.716;9.266;2022-12-18T02:23:56;101775.78;;;-7.05;86.53
17060;BME280;8646;49.716;9.266;2022-12-18T02:27:14;101780.06;;;-7.07;86.57
17060;BME280;8646;49.716;9.266;2022-12-18T02:30:18;101790.72;;;-7.04;86.48
17060;BME280;8646;49.716;9.266;2022-12-18T02:33:22;101783.47;;;-7.26;87.06
17060;BME280;8646;49.716;9.266;2022-12-18T02:36:27;101784.72;;;-7.36;87.79
17060;BME280;8646;49.716;9.266;2022-12-18T02:39:34;101800.28;;;-7.40;87.44
17060;BME280;8646;49.716;9.266;2022-12-18T02:42:40;101796.72;;;-7.24;87.49
17060;BME280;8646;49.716;9.266;2022-12-18T02:45:47;101796.38;;;-7.14;86.98
17060;BME280;8646;49.716;9.266;2022-12-18T02:48:51;101791.72;;;-7.36;88.02
17060;BME280;8646;49.716;9.266;2022-12-18T02:52:03;101782.09;;;-7.36;87.80
17060;BME280;8646;49.716;9.266;2022-12-18T02:55:15;101779.78;;;-7.13;87.39
17060;BME280;8646;49.716;9.266;2022-12-18T02:58:26;101777.94;;;-7.14;86.90
17060;BME280;8646;49.716;9.266;2022-12-18T03:01:43;101782.25;;;-7.33;87.39
17060;BME280;8646;49.716;9.266;2022-12-18T03:04:55;101785.41;;;-7.40;87.51
17060;BME280;8646;49.716;9.266;2022-12-18T03:08:03;101792.47;;;-7.39;87.84
17060;BME280;8646;49.716;9.266;2022-12-18T03:11:10;101792.53;;;-7.37;88.05
17060;BME280;8646;49.716;9.266;2022-12-18T03:14:16;101778.38;;;-7.23;87.29
17060;BME280;8646;49.716;9.266;2022-12-18T03:17:25;101792.47;;;-7.39;87.36
17060;BME280;8646;49.716;9.266;2022-12-18T03:20:32;101782.09;;;-7.52;87.64
17060;BME280;8646;49.716;9.266;2022-12-18T03:23:40;101781.47;;;-7.48;87.84
17060;BME280;8646;49.716;9.266;2022-12-18T03:26:53;101781.38;;;-7.49;87.60
17060;BME280;8646;49.716;9.266;2022-12-18T03:30:03;101794.03;;;-7.58;87.96
17060;BME280;8646;49.716;9.266;2022-12-18T03:33:12;101796.50;;;-7.61;88.03
17060;BME280;8646;49.716;9.266;2022-12-18T03:36:19;101804.06;;;-7.67;88.28
17060;BME280;8646;49.716;9.266;2022-12-18T03:39:22;101797.16;;;-7.65;88.43
17060;BME280;8646;49.716;9.266;2022-12-18T03:42:29;101802.66;;;-7.61;88.22
17060;BME280;8646;49.716;9.266;2022-12-18T03:45:37;101800.59;;;-7.66;87.99
17060;BME280;8646;49.716;9.266;2022-12-18T03:48:51;101803.16;;;-7.68;88.14
17060;BME280;8646;49.716;9.266;2022-12-18T03:52:02;101798.06;;;-7.65;88.15
17060;BME280;8646;49.716;9.266;2022-12-18T03:55:07;101798.56;;;-7.56;87.57
17060;BME280;8646;49.716;9.266;2022-12-18T03:58:15;101791.91;;;-7.65;87.82
17060;BME280;8646;49.716;9.266;2022-12-18T04:01:25;101796.25;;;-7.66;87.87
17060;BME280;8646;49.716;9.266;2022-12-18T04:04:30;101777.34;;;-7.75;87.97
17060;BME280;8646;49.716;9.266;2022-12-18T04:07:34;101798.06;;;-7.65;88.15
17060;BME280;8646;49.716;9.266;2022-12-18T04:10:38;101754.19;;;-7.98;88.12
17060;BME280;8646;49.716;9.266;2022-12-18T04:13:42;101805.13;;;-7.64;88.03
17060;BME280;8646;49.716;9.266;2022-12-18T04:16:54;101806.44;;;-7.56;87.88
17060;BME280;8646;49.716;9.266;2022-12-18T04:19:56;101807.59;;;-7.51;87.58
17060;BME280;8646;49.716;9.266;2022-12-18T04:22:59;101787.69;;;-7.29;87.18
17060;BME280;8646;49.716;9.266;2022-12-18T04:26:02;101778.69;;;-7.17;86.01
17060;BME280;8646;49.716;9.266;2022-12-18T04:29:05;101779.13;;;-7.25;86.56
17060;BME280;8646;49.716;9.266;2022-12-18T04:32:09;101795.16;;;-7.37;86.99
17060;BME280;8646;49.716;9.266;2022-12-18T04:35:12;101786.38;;;-7.38;87.22
17060;BME280;8646;49.716;9.266;2022-12-18T04:38:15;101783.59;;;-7.41;87.44
17060;BME280;8646;49.716;9.266;2022-12-18T04:41:18;101782.38;;;-7.47;87.54
17060;BME280;8646;49.716;9.266;2022-12-18T04:44:20;101780.66;;;-7.47;87.70
17060;BME280;8646;49.716;9.266;2022-12-18T04:47:25;101780.88;;;-7.42;87.64
17060;BME280;8646;49.716;9.266;2022-12-18T04:50:28;101796.66;;;-7.42;87.60
17060;BME280;8646;49.716;9.266;2022-12-18T04:53:31;101788.69;;;-7.44;87.88
17060;BME280;8646;49.716;9.266;2022-12-18T04:56:34;101791.81;;;-7.51;87.93
17060;BME280;8646;49.716;9.266;2022-12-18T04:59:36;101783.00;;;-7.51;87.71
17060;BME280;8646;49.716;9.266;2022-12-18T05:02:40;101797.75;;;-7.55;87.82
17060;BME280;8646;49.716;9.266;2022-12-18T05:05:44;101793.03;;;-7.44;87.64
17060;BME280;8646;49.716;9.266;2022-12-18T05:08:47;101785.22;;;-7.43;87.63
17060;BME280;8646;49.716;9.266;2022-12-18T05:11:52;101790.75;;;-7.38;88.22
17060;BME280;8646;49.716;9.266;2022-12-18T05:14:56;101795.81;;;-7.25;88.06
17060;BME280;8646;49.716;9.266;2022-12-18T05:18:00;101789.22;;;-7.17;87.87
17060;BME280;8646;49.716;9.266;2022-12-18T05:21:06;101792.06;;;-7.12;87.11
17060;BME280;8646;49.716;9.266;2022-12-18T05:24:09;101788.13;;;-7.20;87.56
17060;BME280;8646;49.716;9.266;2022-12-18T05:27:12;101793.09;;;-7.26;87.62
17060;BME280;8646;49.716;9.266;2022-12-18T05:30:16;101794.91;;;-7.25;87.93
17060;BME280;8646;49.716;9.266;2022-12-18T05:33:22;101791.16;;;-7.30;87.68
17060;BME280;8646;49.716;9.266;2022-12-18T05:36:25;101793.81;;;-7.29;87.85
17060;BME280;8646;49.716;9.266;2022-12-18T05:39:28;101796.22;;;-7.34;88.11
17060;BME280;8646;49.716;9.266;2022-12-18T05:42:30;101803.22;;;-7.34;87.66
17060;BME280;8646;49.716;9.266;2022-12-18T05:45:36;101803.00;;;-7.39;87.98
17060;BME280;8646;49.716;9.266;2022-12-18T05:48:40;101798.28;;;-7.28;87.46
17060;BME280;8646;49.716;9.266;2022-12-18T05:51:44;101798.78;;;-7.35;87.96
17060;BME280;8646;49.716;9.266;2022-12-18T05:54:53;101790.97;;;-7.34;88.13
17060;BME280;8646;49.716;9.266;2022-12-18T05:57:56;101798.63;;;-7.38;88.11
17060;BME280;8646;49.716;9.266;2022-12-18T06:01:06;101799.09;;;-7.29;87.86
17060;BME280;8646;49.716;9.266;2022-12-18T06:04:11;101807.41;;;-7.21;87.75
17060;BME280;8646;49.716;9.266;2022-12-18T06:07:17;101798.34;;;-7.26;88.32
17060;BME280;8646;49.716;9.266;2022-12-18T06:10:20;101800.00;;;-7.28;88.52
17060;BME280;8646;49.716;9.266;2022-12-18T06:13:22;101805.25;;;-7.28;88.45
17060;BME280;8646;49.716;9.266;2022-12-18T06:16:25;101807.16;;;-7.26;88.06
17060;BME280;8646;49.716;9.266;2022-12-18T06:19:30;101797.38;;;-7.28;87.98
17060;BME280;8646;49.716;9.266;2022-12-18T06:22:33;101798.63;;;-7.38;88.49
17060;BME280;8646;49.716;9.266;2022-12-18T06:25:42;101807.84;;;-7.30;88.43
17060;BME280;8646;49.716;9.266;2022-12-18T06:28:45;101813.22;;;-7.27;88.13
17060;BME280;8646;49.716;9.266;2022-12-18T06:31:50;101811.41;;;-7.28;88.35
17060;BME280;8646;49.716;9.266;2022-12-18T06:34:54;101814.00;;;-7.29;88.10
17060;BME280;8646;49.716;9.266;2022-12-18T06:37:57;101836.00;;;-7.27;87.93
17060;BME280;8646;49.716;9.266;2022-12-18T06:41:06;101828.69;;;-7.33;88.29
17060;BME280;8646;49.716;9.266;2022-12-18T06:44:09;101829.00;;;-7.27;87.89
17060;BME280;8646;49.716;9.266;2022-12-18T06:47:13;101831.91;;;-7.22;87.90
17060;BME280;8646;49.716;9.266;2022-12-18T06:50:17;101837.00;;;-7.25;87.54
17060;BME280;8646;49.716;9.266;2022-12-18T06:53:20;101840.34;;;-7.28;87.76
17060;BME280;8646;49.716;9.266;2022-12-18T06:56:23;101836.09;;;-7.26;87.29
17060;BME280;8646;49.716;9.266;2022-12-18T06:59:28;101831.72;;;-7.25;87.44
17060;BME280;8646;49.716;9.266;2022-12-18T07:02:34;101842.84;;;-7.31;87.31
17060;BME280;8646;49.716;9.266;2022-12-18T07:05:40;101850.66;;;-7.33;87.38
17060;BME280;8646;49.716;9.266;2022-12-18T07:08:43;101853.47;;;-7.29;87.43
17060;BME280;8646;49.716;9.266;2022-12-18T07:11:46;101864.44;;;-7.37;87.11
17060;BME280;8646;49.716;9.266;2022-12-18T07:14:49;101863.13;;;-7.28;87.07
17060;BME280;8646;49.716;9.266;2022-12-18T07:17:54;101883.22;;;-7.30;86.83
17060;BME280;8646;49.716;9.266;2022-12-18T07:21:02;101859.44;;;-7.48;86.82
17060;BME280;8646;49.716;9.266;2022-12-18T07:24:06;101876.97;;;-7.33;86.57
17060;BME280;8646;49.716;9.266;2022-12-18T07:27:09;101874.31;;;-7.33;86.17
17060;BME280;8646;49.716;9.266;2022-12-18T07:30:12;101882.41;;;-7.29;86.19
17060;BME280;8646;49.716;9.266;2022-12-18T07:33:15;101879.09;;;-7.25;85.91
17060;BME280;8646;49.716;9.266;2022-12-18T07:36:25;101873.66;;;-7.28;85.68
17060;BME280;8646;49.716;9.266;2022-12-18T07:39:34;101883.75;;;-7.20;85.50
17060;BME280;8646;49.716;9.266;2022-12-18T07:42:37;101886.34;;;-7.21;85.00
17060;BME280;8646;49.716;9.266;2022-12-18T07:45:40;101886.66;;;-7.15;85.27
17060;BME280;8646;49.716;9.266;2022-12-18T07:48:43;101879.75;;;-7.13;85.17
17060;BME280;8646;49.716;9.266;2022-12-18T07:51:53;101882.03;;;-7.03;84.95
17060;BME280;8646;49.716;9.266;2022-12-18T07:54:56;101888.06;;;-7.06;85.01
17060;BME280;8646;49.716;9.266;2022-12-18T07:58:01;101888.44;;;-6.98;84.77
17060;BME280;8646;49.716;9.266;2022-12-18T08:01:05;101881.47;;;-6.98;84.52
17060;BME280;8646;49.716;9.266;2022-12-18T08:04:08;101885.31;;;-6.91;84.45
17060;BME280;8646;49.716;9.266;2022-12-18T08:07:12;101896.47;;;-6.79;84.54
17060;BME280;8646;49.716;9.266;2022-12-18T08:10:15;101909.69;;;-6.61;83.38
17060;BME280;8646;49.716;9.266;2022-12-18T08:13:18;101913.72;;;-6.68;84.00
17060;BME280;8646;49.716;9.266;2022-12-18T08:16:21;101904.16;;;-6.49;83.55
17060;BME280;8646;49.716;9.266;2022-12-18T08:19:25;101910.66;;;-6.59;83.52
17060;BME280;8646;49.716;9.266;2022-12-18T08:22:29;101909.53;;;-6.46;83.61
17060;BME280;8646;49.716;9.266;2022-12-18T08:25:32;101896.72;;;-6.40;83.42
17060;BME280;8646;49.716;9.266;2022-12-18T08:28:36;101900.16;;;-6.41;83.41
17060;BME280;8646;49.716;9.266;2022-12-18T08:31:41;101898.00;;;-6.32;83.48
17060;BME280;8646;49.716;9.266;2022-12-18T08:34:47;101898.75;;;-6.17;83.33
17060;BME280;8646;49.716;9.266;2022-12-18T08:37:51;101893.94;;;-6.08;83.10
17060;BME280;8646;49.716;9.266;2022-12-18T08:41:01;101893.59;;;-5.96;82.92
17060;BME280;8646;49.716;9.266;2022-12-18T08:44:04;101890.53;;;-5.88;82.43
17060;BME280;8646;49.716;9.266;2022-12-18T08:47:27;101888.63;;;-5.90;82.10
17060;BME280;8646;49.716;9.266;2022-12-18T08:50:29;101884.66;;;-5.81;81.56
17060;BME280;8646;49.716;9.266;2022-12-18T08:53:33;101883.75;;;-5.81;81.65
17060;BME280;8646;49.716;9.266;2022-12-18T08:56:37;101875.38;;;-5.72;80.67
17060;BME280;8646;49.716;9.266;2022-12-18T08:59:42;101869.88;;;-5.59;80.73
17060;BME280;8646;49.716;9.266;2022-12-18T09:02:44;101869.56;;;-5.65;80.84
17060;BME280;8646;49.716;9.266;2022-12-18T09:05:48;101861.28;;;-5.73;81.50
17060;BME280;8646;49.716;9.266;2022-12-18T09:08:52;101865.63;;;-5.56;81.40
17060;BME280;8646;49.716;9.266;2022-12-18T09:11:57;101850.84;;;-5.33;80.28
17060;BME280;8646;49.716;9.266;2022-12-18T09:15:03;101853.47;;;-5.33;80.89
17060;BME280;8646;49.716;9.266;2022-12-18T09:18:06;101857.66;;;-5.19;79.44
17060;BME280;8646;49.716;9.266;2022-12-18T09:21:18;101849.09;;;-5.32;80.81
17060;BME280;8646;49.716;9.266;2022-12-18T09:24:28;101861.81;;;-5.05;79.79
17060;BME280;8646;49.716;9.266;2022-12-18T09:27:30;101855.72;;;-5.04;80.19
17060;BME280;8646;49.716;9.266;2022-12-18T09:30:46;101858.38;;;-5.02;80.46
17060;BME280;8646;49.716;9.266;2022-12-18T09:33:50;101860.53;;;-4.93;81.22
17060;BME280;8646;49.716;9.266;2022-12-18T09:36:53;101869.16;;;-4.78;81.02
17060;BME280;8646;49.716;9.266;2022-12-18T09:39:57;101864.63;;;-4.60;79.82
17060;BME280;8646;49.716;9.266;2022-12-18T09:43:15;101862.13;;;-4.57;79.47
17060;BME280;8646;49.716;9.266;2022-12-18T09:46:25;101849.25;;;-4.49;80.11
17060;BME280;8646;49.716;9.266;2022-12-18T09:49:31;101855.94;;;-4.37;79.23
17060;BME280;8646;49.716;9.266;2022-12-18T09:52:40;101846.06;;;-4.20;78.41
17060;BME280;8646;49.716;9.266;2022-12-18T09:55:48;101840.31;;;-4.10;77.83
17060;BME280;8646;49.716;9.266;2022-12-18T09:58:55;101830.78;;;-4.06;75.68
17060;BME280;8646;49.716;9.266;2022-12-18T10:02:13;101844.75;;;-4.31;78.04
17060;BME280;8646;49.716;9.266;2022-12-18T10:05:22;101845.56;;;-4.32;79.41
17060;BME280;8646;49.716;9.266;2022-12-18T10:08:35;101834.56;;;-4.20;79.63
17060;BME280;8646;49.716;9.266;2022-12-18T10:11:48;101834.50;;;-4.01;79.81
17060;BME280;8646;49.716;9.266;2022-12-18T10:15:00;101829.81;;;-3.86;79.69
17060;BME280;8646;49.716;9.266;2022-12-18T10:18:16;101810.03;;;-3.73;78.85
17060;BME280;8646;49.716;9.266;2022-12-18T10:21:28;101803.94;;;-3.71;79.14
17060;BME280;8646;49.716;9.266;2022-12-18T10:24:37;101797.38;;;-3.58;78.95
17060;BME280;8646;49.716;9.266;2022-12-18T10:27:43;101797.53;;;-3.54;79.50
17060;BME280;8646;49.716;9.266;2022-12-18T10:30:47;101808.34;;;-3.48;79.53
17060;BME280;8646;49.716;9.266;2022-12-18T10:33:53;101804.38;;;-3.36;79.73
17060;BME280;8646;49.716;9.266;2022-12-18T10:36:56;101799.56;;;-3.23;79.28
17060;BME280;8646;49.716;9.266;2022-12-18T10:40:09;101807.06;;;-3.11;79.23
17060;BME280;8646;49.716;9.266;2022-12-18T10:43:24;101785.69;;;-3.16;78.82
17060;BME280;8646;49.716;9.266;2022-12-18T10:46:27;101806.50;;;-3.02;79.12
17060;BME280;8646;49.716;9.266;2022-12-18T10:49:31;101791.50;;;-3.02;78.78
17060;BME280;8646;49.716;9.266;2022-12-18T10:52:35;101778.59;;;-2.91;79.11
17060;BME280;8646;49.716;9.266;2022-12-18T10:55:46;101776.25;;;-2.84;77.95
17060;BME280;8646;49.716;9.266;2022-12-18T10:58:58;101780.47;;;-2.89;78.63
17060;BME280;8646;49.716;9.266;2022-12-18T11:02:01;101771.56;;;-2.91;78.70
17060;BME280;8646;49.716;9.266;2022-12-18T11:05:23;101765.09;;;-2.74;77.51
17060;BME280;8646;49.716;9.266;2022-12-18T11:08:26;101773.59;;;-2.84;78.37
17060;BME280;8646;49.716;9.266;2022-12-18T11:11:31;101773.81;;;-2.78;78.78
17060;BME280;8646;49.716;9.266;2022-12-18T11:14:42;101770.38;;;-2.74;78.96
17060;BME280;8646;49.716;9.266;2022-12-18T11:17:49;101762.66;;;-2.67;78.46
17060;BME280;8646;49.716;9.266;2022-12-18T11:20:54;101753.00;;;-2.39;77.12
17060;BME280;8646;49.716;9.266;2022-12-18T11:23:59;101762.09;;;-2.31;76.77
17060;BME280;8646;49.716;9.266;2022-12-18T11:27:03;101752.41;;;-2.30;76.82
17060;BME280;8646;49.716;9.266;2022-12-18T11:30:13;101746.66;;;-2.44;77.63
17060;BME280;8646;49.716;9.266;2022-12-18T11:33:22;101746.84;;;-2.38;78.57
17060;BME280;8646;49.716;9.266;2022-12-18T11:36:29;101732.22;;;-2.25;78.31
17060;BME280;8646;49.716;9.266;2022-12-18T11:39:36;101738.34;;;-1.99;77.95
17060;BME280;8646;49.716;9.266;2022-12-18T11:42:45;101699.63;;;-1.63;74.68
17060;BME280;8646;49.716;9.266;2022-12-18T11:45:53;101674.16;;;-2.16;77.07
17060;BME280;8646;49.716;9.266;2022-12-18T11:48:58;101706.94;;;-1.84;77.81
17060;BME280;8646;49.716;9.266;2022-12-18T11:52:09;101696.69;;;-1.72;77.90
17060;BME280;8646;49.716;9.266;2022-12-18T11:55:14;101689.31;;;-1.50;76.99
17060;BME280;8646;49.716;9.266;2022-12-18T11:58:27;101700.00;;;-1.49;77.55
17060;BME280;8646;49.716;9.266;2022-12-18T12:01:41;101696.66;;;-1.42;77.58
17060;BME280;8646;49.716;9.266;2022-12-18T12:04:56;101704.72;;;-1.39;77.74
17060;BME280;8646;49.716;9.266;2022-12-18T12:08:08;101704.81;;;-1.34;77.92
17060;BME280;8646;49.716;9.266;2022-12-18T12:11:18;101686.59;;;-1.21;77.20
17060;BME280;8646;49.716;9.266;2022-12-18T12:14:39;101705.03;;;-1.27;76.55
17060;BME280;8646;49.716;9.266;2022-12-18T12:17:50;101707.63;;;-1.30;77.40
17060;BME280;8646;49.716;9.266;2022-12-18T12:21:02;101712.25;;;-1.21;78.14
17060;BME280;8646;49.716;9.266;2022-12-18T12:24:19;101688.72;;;-1.07;77.70
17060;BME280;8646;49.716;9.266;2022-12-18T12:27:30;101687.41;;;-0.89;78.04
17060;BME280;8646;49.716;9.266;2022-12-18T12:30:45;101698.66;;;-0.66;77.75
17060;BME280;8646;49.716;9.266;2022-12-18T12:34:01;101688.16;;;-0.60;77.21
17060;BME280;8646;49.716;9.266;2022-12-18T12:37:18;101673.28;;;-0.52;76.94
17060;BME280;8646;49.716;9.266;2022-12-18T12:40:27;101682.03;;;-0.56;76.13
17060;BME280;8646;49.716;9.266;2022-12-18T12:43:50;101680.19;;;-0.60;76.46
17060;BME280;8646;49.716;9.266;2022-12-18T12:46:56;101676.69;;;-0.57;76.62
17060;BME280;8646;49.716;9.266;2022-12-18T12:50:06;101677.44;;;-0.63;76.88
17060;BME280;8646;49.716;9.266;2022-12-18T12:53:22;101682.03;;;-0.57;77.00
17060;BME280;8646;49.716;9.266;2022-12-18T12:56:36;101686.50;;;-0.55;77.04
17060;BME280;8646;49.716;9.266;2022-12-18T12:59:47;101661.19;;;-0.75;76.63
17060;BME280;8646;49.716;9.266;2022-12-18T13:03:00;101683.47;;;-0.70;76.93
17060;BME280;8646;49.716;9.266;2022-12-18T13:06:12;101678.88;;;-0.77;77.17
17060;BME280;8646;49.716;9.266;2022-12-18T13:09:18;101665.47;;;-0.82;77.14
17060;BME280;8646;49.716;9.266;2022-12-18T13:12:21;101661.13;;;-0.78;77.48
17060;BME280;8646;49.716;9.266;2022-12-18T13:15:44;101644.50;;;-0.69;77.28
17060;BME280;8646;49.716;9.266;2022-12-18T13:18:49;101649.81;;;-0.69;77.42
17060;BME280;8646;49.716;9.266;2022-12-18T13:21:55;101655.03;;;-0.74;77.69
17060;BME280;8646;49.716;9.266;2022-12-18T13:24:59;101659.41;;;-0.76;77.69
17060;BME280;8646;49.716;9.266;2022-12-18T13:28:12;101647.09;;;-0.71;77.84
17060;BME280;8646;49.716;9.266;2022-12-18T13:35:37;101632.28;;;-0.61;77.78
17060;BME280;8646;49.716;9.266;2022-12-18T13:38:42;101631.59;;;-0.53;77.69
17060;BME280;8646;49.716;9.266;2022-12-18T13:41:47;101631.94;;;-0.38;77.49
17060;BME280;8646;49.716;9.266;2022-12-18T13:44:51;101639.94;;;-0.36;77.69
17060;BME280;8646;49.716;9.266;2022-12-18T13:47:54;101646.25;;;-0.31;77.50
17060;BME280;8646;49.716;9.266;2022-12-18T13:51:03;101645.41;;;-0.30;77.18
17060;BME280;8646;49.716;9.266;2022-12-18T13:54:18;101651.63;;;-0.29;77.24
17060;BME280;8646;49.716;9.266;2022-12-18T13:57:26;101644.56;;;-0.27;77.68
17060;BME280;8646;49.716;9.266;2022-12-18T14:00:29;101639.22;;;-0.29;77.63
17060;BME280;8646;49.716;9.266;2022-12-18T14:03:33;101650.63;;;-0.34;77.91
17060;BME280;8646;49.716;9.266;2022-12-18T14:06:36;101647.06;;;-0.35;78.08
17060;BME280;8646;49.716;9.266;2022-12-18T14:09:42;101638.97;;;-0.40;77.72
17060;BME280;8646;49.716;9.266;2022-12-18T14:12:48;101653.34;;;-0.33;78.09
17060;BME280;8646;49.716;9.266;2022-12-18T14:16:14;101649.81;;;-0.30;77.35
17060;BME280;8646;49.716;9.266;2022-12-18T14:19:18;101626.28;;;-0.53;77.64
17060;BME280;8646;49.716;9.266;2022-12-18T14:22:24;101648.81;;;-0.35;77.70
17060;BME280;8646;49.716;9.266;2022-12-18T14:25:30;101634.25;;;-0.53;77.31
17060;BME280;8646;49.716;9.266;2022-12-18T14:28:42;101639.34;;;-0.62;77.98
17060;BME280;8646;49.716;9.266;2022-12-18T14:31:45;101651.09;;;-0.52;78.20
17060;BME280;8646;49.716;9.266;2022-12-18T14:34:51;101656.34;;;-0.55;78.63
17060;BME280;8646;49.716;9.266;2022-12-18T14:38:09;101650.94;;;-0.60;78.26
17060;BME280;8646;49.716;9.266;2022-12-18T14:41:15;101640.16;;;-0.66;78.30
17060;BME280;8646;49.716;9.266;2022-12-18T14:44:18;101646.97;;;-0.77;78.87
17060;BME280;8646;49.716;9.266;2022-12-18T14:47:22;101646.75;;;-0.86;78.91
17060;BME280;8646;49.716;9.266;2022-12-18T14:50:25;101636.91;;;-0.89;79.03
17060;BME280;8646;49.716;9.266;2022-12-18T14:53:34;101640.16;;;-1.02;79.21
17060;BME280;8646;49.716;9.266;2022-12-18T14:56:44;101632.97;;;-1.06;78.89
17060;BME280;8646;49.716;9.266;2022-12-18T14:59:48;101640.28;;;-0.96;78.35
17060;BME280;8646;49.716;9.266;2022-12-18T15:02:53;101645.94;;;-1.18;79.20
17060;BME280;8646;49.716;9.266;2022-12-18T15:06:15;101620.66;;;-1.37;79.17
17060;BME280;8646;49.716;9.266;2022-12-18T15:09:22;101639.66;;;-1.20;79.65
17060;BME280;8646;49.716;9.266;2022-12-18T15:12:33;101649.25;;;-1.27;79.43
17060;BME280;8646;49.716;9.266;2022-12-18T15:15:47;101642.88;;;-1.33;80.00
17060;BME280;8646;49.716;9.266;2022-12-18T15:18:50;101655.16;;;-1.38;80.07
17060;BME280;8646;49.716;9.266;2022-12-18T15:21:53;101648.31;;;-1.29;79.86
17060;BME280;8646;49.716;9.266;2022-12-18T15:24:58;101637.47;;;-1.38;80.05
17060;BME280;8646;49.716;9.266;2022-12-18T15:28:17;101637.22;;;-1.47;80.48
17060;BME280;8646;49.716;9.266;2022-12-18T15:31:24;101631.06;;;-1.46;80.31
17060;BME280;8646;49.716;9.266;2022-12-18T15:34:31;101626.69;;;-1.42;80.38
17060;BME280;8646;49.716;9.266;2022-12-18T15:37:35;101638.13;;;-1.45;80.60
17060;BME280;8646;49.716;9.266;2022-12-18T15:40:45;101641.59;;;-1.49;80.89
17060;BME280;8646;49.716;9.266;2022-12-18T15:43:51;101635.38;;;-1.49;80.95
17060;BME280;8646;49.716;9.266;2022-12-18T15:46:53;101642.06;;;-1.31;80.28
17060;BME280;8646;49.716;9.266;2022-12-18T15:49:56;101638.31;;;-1.39;80.99
17060;BME280;8646;49.716;9.266;2022-12-18T15:52:59;101653.34;;;-1.39;81.08
17060;BME280;8646;49.716;9.266;2022-12-18T15:56:04;101647.03;;;-1.43;81.50
17060;BME280;8646;49.716;9.266;2022-12-18T15:59:26;101648.09;;;-1.38;81.36
17060;BME280;8646;49.716;9.266;2022-12-18T16:02:31;101636.09;;;-1.22;80.92
17060;BME280;8646;49.716;9.266;2022-12-18T16:05:38;101637.56;;;-1.33;81.34
17060;BME280;8646;49.716;9.266;2022-12-18T16:08:42;101644.53;;;-1.38;81.64
17060;BME280;8646;49.716;9.266;2022-12-18T16:11:45;101639.72;;;-1.19;79.91
17060;BME280;8646;49.716;9.266;2022-12-18T16:14:50;101633.06;;;-1.36;80.84
17060;BME280;8646;49.716;9.266;2022-12-18T16:17:53;101640.34;;;-1.29;80.65
17060;BME280;8646;49.716;9.266;2022-12-18T16:20:56;101641.41;;;-1.22;79.98
17060;BME280;8646;49.716;9.266;2022-12-18T16:23:58;101640.22;;;-1.33;80.75
17060;BME280;8646;49.716;9.266;2022-12-18T16:27:01;101624.88;;;-1.10;79.50
17060;BME280;8646;49.716;9.266;2022-12-18T16:30:12;101635.69;;;-1.37;80.10
17060;BME280;8646;49.716;9.266;2022-12-18T16:33:15;101632.81;;;-1.45;80.88